sensor_id;sensor_type;location;lat;lon;timestamp;P1;durP1;ratioP1;P2;durP2;ratioP2
64873;SDS011;51367;45.204;38.576;2023-12-29T00:02:17;2.40;;;1.58;;
64873;SDS011;51367;45.204;38.576;2023-12-29T00:04:43;1.00;;;1.00;;
64873;SDS011;51367;45.204;38.576;2023-12-29T00:07:09;1.50;;;1.17;;
64873;SDS011;51367;45.204;38.576;2023-12-29T00:09:35;0.60;;;0.60;;
64873;SDS011;51367;45.204;38.576;2023-12-29T00:12:06;1.83;;;1.73;;
64873;SDS011;51367;45.204;38.576;2023-12-29T00:14:33;0.77;;;0.77;;
64873;SDS011;51367;45.204;38.576;2023-12-29T00:17:02;1.00;;;0.95;;
64873;SDS011;51367;45.204;38.576;2023-12-29T00:19:28;1.38;;;1.27;;
64873;SDS011;51367;45.204;38.576;2023-12-29T00:21:55;0.45;;;0.45;;
64873;SDS011;51367;45.204;38.576;2023-12-29T00:24:20;2.03;;;0.80;;
64873;SDS011;51367;45.204;38.576;2023-12-29T00:26:46;2.35;;;1.48;;
64873;SDS011;51367;45.204;38.576;2023-12-29T00:29:14;0.85;;;0.85;;
64873;SDS011;51367;45.204;38.576;2023-12-29T00:31:40;1.02;;;1.02;;
64873;SDS011;51367;45.204;38.576;2023-12-29T00:34:07;0.82;;;0.82;;
64873;SDS011;51367;45.204;38.576;2023-12-29T00:36:33;8.90;;;0.68;;
64873;SDS011;51367;45.204;38.576;2023-12-29T00:38:59;1.02;;;1.02;;
64873;SDS011;51367;45.204;38.576;2023-12-29T00:41:25;1.05;;;0.90;;
64873;SDS011;51367;45.204;38.576;2023-12-29T00:43:51;0.75;;;0.65;;
64873;SDS011;51367;45.204;38.576;2023-12-29T00:46:17;0.60;;;0.60;;
64873;SDS011;51367;45.204;38.576;2023-12-29T00:48:43;1.38;;;1.30;;
64873;SDS011;51367;45.204;38.576;2023-12-29T00:51:09;1.08;;;1.05;;
64873;SDS011;51367;45.204;38.576;2023-12-29T00:53:35;1.92;;;1.52;;
64873;SDS011;51367;45.204;38.576;2023-12-29T00:56:02;1.05;;;0.90;;
64873;SDS011;51367;45.204;38.576;2023-12-29T00:58:28;0.70;;;0.70;;
64873;SDS011;51367;45.204;38.576;2023-12-29T01:00:54;0.98;;;0.57;;
64873;SDS011;51367;45.204;38.576;2023-12-29T01:03:20;0.55;;;0.55;;
64873;SDS011;51367;45.204;38.576;2023-12-29T01:05:46;0.63;;;0.63;;
64873;SDS011;51367;45.204;38.576;2023-12-29T01:08:12;1.10;;;1.02;;
64873;SDS011;51367;45.204;38.576;2023-12-29T01:10:38;0.90;;;0.90;;
64873;SDS011;51367;45.204;38.576;2023-12-29T01:13:04;1.38;;;1.27;;
64873;SDS011;51367;45.204;38.576;2023-12-29T01:15:30;0.77;;;0.77;;
64873;SDS011;51367;45.204;38.576;2023-12-29T01:17:56;0.40;;;0.40;;
64873;SDS011;51367;45.204;38.576;2023-12-29T01:20:22;1.00;;;0.70;;
64873;SDS011;51367;45.204;38.576;2023-12-29T01:22:48;1.08;;;1.05;;
64873;SDS011;51367;45.204;38.576;2023-12-29T01:25:14;1.20;;;1.20;;
64873;SDS011;51367;45.204;38.576;2023-12-29T01:27:40;1.50;;;1.40;;
64873;SDS011;51367;45.204;38.576;2023-12-29T01:30:06;0.55;;;0.55;;
64873;SDS011;51367;45.204;38.576;2023-12-29T01:32:33;0.45;;;0.45;;
64873;SDS011;51367;45.204;38.576;2023-12-29T01:34:59;0.50;;;0.50;;
64873;SDS011;51367;45.204;38.576;2023-12-29T01:37:25;1.27;;;0.73;;
64873;SDS011;51367;45.204;38.576;2023-12-29T01:39:51;0.68;;;0.68;;
64873;SDS011;51367;45.204;38.576;2023-12-29T01:42:17;0.43;;;0.43;;
64873;SDS011;51367;45.204;38.576;2023-12-29T01:44:43;0.50;;;0.50;;
64873;SDS011;51367;45.204;38.576;2023-12-29T01:47:15;3.53;;;0.98;;
64873;SDS011;51367;45.204;38.576;2023-12-29T01:49:43;0.43;;;0.43;;
64873;SDS011;51367;45.204;38.576;2023-12-29T01:52:13;0.43;;;0.43;;
64873;SDS011;51367;45.204;38.576;2023-12-29T01:54:40;1.02;;;0.63;;
64873;SDS011;51367;45.204;38.576;2023-12-29T01:57:08;0.85;;;0.57;;
64873;SDS011;51367;45.204;38.576;2023-12-29T01:59:34;0.47;;;0.40;;
64873;SDS011;51367;45.204;38.576;2023-12-29T02:02:01;0.52;;;0.52;;
64873;SDS011;51367;45.204;38.576;2023-12-29T02:04:28;0.50;;;0.50;;
64873;SDS011;51367;45.204;38.576;2023-12-29T02:06:54;0.45;;;0.45;;
64873;SDS011;51367;45.204;38.576;2023-12-29T02:09:21;5.88;;;0.95;;
64873;SDS011;51367;45.204;38.576;2023-12-29T02:11:47;6.78;;;1.40;;
64873;SDS011;51367;45.204;38.576;2023-12-29T02:14:17;1.20;;;1.13;;
64873;SDS011;51367;45.204;38.576;2023-12-29T02:16:46;0.93;;;0.70;;
64873;SDS011;51367;45.204;38.576;2023-12-29T02:22:17;2.08;;;0.75;;
64873;SDS011;51367;45.204;38.576;2023-12-29T02:24:46;1.13;;;1.13;;
64873;SDS011;51367;45.204;38.576;2023-12-29T02:32:27;0.60;;;0.60;;
64873;SDS011;51367;45.204;38.576;2023-12-29T02:34:55;1.08;;;0.73;;
64873;SDS011;51367;45.204;38.576;2023-12-29T02:37:23;1.48;;;0.40;;
64873;SDS011;51367;45.204;38.576;2023-12-29T02:39:50;0.40;;;0.40;;
64873;SDS011;51367;45.204;38.576;2023-12-29T02:42:16;0.40;;;0.40;;
64873;SDS011;51367;45.204;38.576;2023-12-29T02:44:42;0.75;;;0.75;;
64873;SDS011;51367;45.204;38.576;2023-12-29T02:47:08;0.60;;;0.60;;
64873;SDS011;51367;45.204;38.576;2023-12-29T02:49:34;0.60;;;0.60;;
64873;SDS011;51367;45.204;38.576;2023-12-29T02:52:00;1.20;;;1.20;;
64873;SDS011;51367;45.204;38.576;2023-12-29T02:54:26;0.50;;;0.50;;
64873;SDS011;51367;45.204;38.576;2023-12-29T02:56:52;0.40;;;0.40;;
64873;SDS011;51367;45.204;38.576;2023-12-29T02:59:17;1.70;;;1.60;;
64873;SDS011;51367;45.204;38.576;2023-12-29T03:01:44;1.27;;;1.27;;
64873;SDS011;51367;45.204;38.576;2023-12-29T03:04:10;0.90;;;0.90;;
64873;SDS011;51367;45.204;38.576;2023-12-29T03:06:36;1.08;;;1.08;;
64873;SDS011;51367;45.204;38.576;2023-12-29T03:09:02;1.08;;;1.08;;
64873;SDS011;51367;45.204;38.576;2023-12-29T03:11:28;0.55;;;0.55;;
64873;SDS011;51367;45.204;38.576;2023-12-29T03:13:54;1.73;;;1.65;;
64873;SDS011;51367;45.204;38.576;2023-12-29T03:16:20;0.40;;;0.40;;
64873;SDS011;51367;45.204;38.576;2023-12-29T03:18:46;1.13;;;1.10;;
64873;SDS011;51367;45.204;38.576;2023-12-29T03:21:13;1.15;;;1.13;;
64873;SDS011;51367;45.204;38.576;2023-12-29T03:23:38;7.25;;;6.82;;
64873;SDS011;51367;45.204;38.576;2023-12-29T03:26:04;2.40;;;2.20;;
64873;SDS011;51367;45.204;38.576;2023-12-29T03:28:30;28.25;;;5.38;;
64873;SDS011;51367;45.204;38.576;2023-12-29T03:30:57;11.85;;;11.15;;
64873;SDS011;51367;45.204;38.576;2023-12-29T03:33:23;4.90;;;4.70;;
64873;SDS011;51367;45.204;38.576;2023-12-29T03:35:49;13.05;;;10.93;;
64873;SDS011;51367;45.204;38.576;2023-12-29T03:38:15;5.75;;;5.43;;
64873;SDS011;51367;45.204;38.576;2023-12-29T03:40:41;0.90;;;0.90;;
64873;SDS011;51367;45.204;38.576;2023-12-29T03:43:07;3.45;;;3.30;;
64873;SDS011;51367;45.204;38.576;2023-12-29T03:45:33;1.02;;;1.02;;
64873;SDS011;51367;45.204;38.576;2023-12-29T03:47:59;2.28;;;2.17;;
64873;SDS011;51367;45.204;38.576;2023-12-29T03:50:25;3.45;;;2.35;;
64873;SDS011;51367;45.204;38.576;2023-12-29T03:52:51;2.28;;;2.17;;
64873;SDS011;51367;45.204;38.576;2023-12-29T03:55:16;2.85;;;2.65;;
64873;SDS011;51367;45.204;38.576;2023-12-29T03:57:42;1.77;;;1.75;;
64873;SDS011;51367;45.204;38.576;2023-12-29T04:00:12;1.23;;;1.23;;
64873;SDS011;51367;45.204;38.576;2023-12-29T04:02:39;2.25;;;2.15;;
64873;SDS011;51367;45.204;38.576;2023-12-29T04:05:06;4.85;;;4.63;;
64873;SDS011;51367;45.204;38.576;2023-12-29T04:07:33;4.38;;;4.18;;
64873;SDS011;51367;45.204;38.576;2023-12-29T04:09:59;2.38;;;2.28;;
64873;SDS011;51367;45.204;38.576;2023-12-29T04:12:25;5.85;;;5.45;;
64873;SDS011;51367;45.204;38.576;2023-12-29T04:14:51;1.92;;;1.88;;
64873;SDS011;51367;45.204;38.576;2023-12-29T04:17:17;1.42;;;1.42;;
64873;SDS011;51367;45.204;38.576;2023-12-29T04:19:43;8.30;;;7.78;;
64873;SDS011;51367;45.204;38.576;2023-12-29T04:22:09;1.63;;;1.63;;
64873;SDS011;51367;45.204;38.576;2023-12-29T04:24:37;7.90;;;2.90;;
64873;SDS011;51367;45.204;38.576;2023-12-29T04:27:03;3.13;;;2.95;;
64873;SDS011;51367;45.204;38.576;2023-12-29T04:29:30;3.72;;;3.33;;
64873;SDS011;51367;45.204;38.576;2023-12-29T04:31:56;5.65;;;5.35;;
64873;SDS011;51367;45.204;38.576;2023-12-29T04:34:22;2.95;;;2.70;;
64873;SDS011;51367;45.204;38.576;2023-12-29T04:36:48;2.50;;;2.40;;
64873;SDS011;51367;45.204;38.576;2023-12-29T04:39:15;2.03;;;1.92;;
64873;SDS011;51367;45.204;38.576;2023-12-29T04:41:44;3.90;;;3.70;;
64873;SDS011;51367;45.204;38.576;2023-12-29T04:44:10;4.38;;;3.92;;
64873;SDS011;51367;45.204;38.576;2023-12-29T04:46:36;2.22;;;2.13;;
64873;SDS011;51367;45.204;38.576;2023-12-29T04:49:02;2.90;;;2.67;;
64873;SDS011;51367;45.204;38.576;2023-12-29T04:51:28;2.00;;;1.90;;
64873;SDS011;51367;45.204;38.576;2023-12-29T04:53:53;5.72;;;5.20;;
64873;SDS011;51367;45.204;38.576;2023-12-29T04:56:20;3.17;;;3.08;;
64873;SDS011;51367;45.204;38.576;2023-12-29T04:58:46;12.82;;;11.88;;
64873;SDS011;51367;45.204;38.576;2023-12-29T05:01:12;11.82;;;11.10;;
64873;SDS011;51367;45.204;38.576;2023-12-29T05:03:38;18.38;;;17.30;;
64873;SDS011;51367;45.204;38.576;2023-12-29T05:06:04;18.90;;;17.85;;
64873;SDS011;51367;45.204;38.576;2023-12-29T05:08:30;18.98;;;17.67;;
64873;SDS011;51367;45.204;38.576;2023-12-29T05:10:56;26.63;;;24.15;;
64873;SDS011;51367;45.204;38.576;2023-12-29T05:13:22;15.18;;;13.73;;
64873;SDS011;51367;45.204;38.576;2023-12-29T05:15:48;29.80;;;27.05;;
64873;SDS011;51367;45.204;38.576;2023-12-29T05:18:14;39.03;;;22.50;;
64873;SDS011;51367;45.204;38.576;2023-12-29T05:20:41;5.13;;;4.75;;
64873;SDS011;51367;45.204;38.576;2023-12-29T05:23:07;4.57;;;3.03;;
64873;SDS011;51367;45.204;38.576;2023-12-29T05:25:33;2.55;;;2.45;;
64873;SDS011;51367;45.204;38.576;2023-12-29T05:27:59;3.80;;;3.50;;
64873;SDS011;51367;45.204;38.576;2023-12-29T05:30:25;4.00;;;3.83;;
64873;SDS011;51367;45.204;38.576;2023-12-29T05:32:56;5.25;;;4.93;;
64873;SDS011;51367;45.204;38.576;2023-12-29T05:35:22;10.93;;;10.27;;
64873;SDS011;51367;45.204;38.576;2023-12-29T05:37:48;5.05;;;4.75;;
64873;SDS011;51367;45.204;38.576;2023-12-29T05:40:15;3.42;;;3.15;;
64873;SDS011;51367;45.204;38.576;2023-12-29T05:42:41;6.22;;;3.15;;
64873;SDS011;51367;45.204;38.576;2023-12-29T05:45:07;4.13;;;3.92;;
64873;SDS011;51367;45.204;38.576;2023-12-29T05:47:34;1.00;;;1.00;;
64873;SDS011;51367;45.204;38.576;2023-12-29T05:50:00;9.93;;;9.18;;
64873;SDS011;51367;45.204;38.576;2023-12-29T05:52:26;2.40;;;2.30;;
64873;SDS011;51367;45.204;38.576;2023-12-29T05:54:52;2.35;;;2.25;;
64873;SDS011;51367;45.204;38.576;2023-12-29T05:57:18;9.95;;;3.08;;
64873;SDS011;51367;45.204;38.576;2023-12-29T05:59:44;4.43;;;2.97;;
64873;SDS011;51367;45.204;38.576;2023-12-29T06:02:09;1.15;;;1.10;;
64873;SDS011;51367;45.204;38.576;2023-12-29T06:04:35;0.90;;;0.90;;
64873;SDS011;51367;45.204;38.576;2023-12-29T06:07:01;0.75;;;0.75;;
64873;SDS011;51367;45.204;38.576;2023-12-29T06:09:28;1.38;;;1.10;;
64873;SDS011;51367;45.204;38.576;2023-12-29T06:11:54;1.58;;;1.48;;
64873;SDS011;51367;45.204;38.576;2023-12-29T06:14:19;0.88;;;0.88;;
64873;SDS011;51367;45.204;38.576;2023-12-29T06:16:46;2.22;;;1.33;;
64873;SDS011;51367;45.204;38.576;2023-12-29T06:19:12;2.35;;;2.08;;
64873;SDS011;51367;45.204;38.576;2023-12-29T06:21:41;1.63;;;1.52;;
64873;SDS011;51367;45.204;38.576;2023-12-29T06:24:10;0.77;;;0.77;;
64873;SDS011;51367;45.204;38.576;2023-12-29T06:26:37;1.13;;;1.13;;
64873;SDS011;51367;45.204;38.576;2023-12-29T06:29:09;0.70;;;0.70;;
64873;SDS011;51367;45.204;38.576;2023-12-29T06:31:35;0.90;;;0.90;;
64873;SDS011;51367;45.204;38.576;2023-12-29T06:34:01;0.30;;;0.30;;
64873;SDS011;51367;45.204;38.576;2023-12-29T06:36:27;0.52;;;0.52;;
64873;SDS011;51367;45.204;38.576;2023-12-29T06:38:53;1.52;;;1.42;;
64873;SDS011;51367;45.204;38.576;2023-12-29T06:41:19;0.30;;;0.30;;
64873;SDS011;51367;45.204;38.576;2023-12-29T06:43:45;1.60;;;1.15;;
64873;SDS011;51367;45.204;38.576;2023-12-29T06:46:11;0.65;;;0.63;;
64873;SDS011;51367;45.204;38.576;2023-12-29T06:48:40;0.50;;;0.50;;
64873;SDS011;51367;45.204;38.576;2023-12-29T06:51:06;1.95;;;0.80;;
64873;SDS011;51367;45.204;38.576;2023-12-29T06:53:33;0.80;;;0.80;;
64873;SDS011;51367;45.204;38.576;2023-12-29T06:55:59;0.63;;;0.63;;
64873;SDS011;51367;45.204;38.576;2023-12-29T06:58:25;3.08;;;1.67;;
64873;SDS011;51367;45.204;38.576;2023-12-29T07:00:51;0.50;;;0.50;;
64873;SDS011;51367;45.204;38.576;2023-12-29T07:03:17;2.10;;;1.00;;
64873;SDS011;51367;45.204;38.576;2023-12-29T07:05:43;4.00;;;1.70;;
64873;SDS011;51367;45.204;38.576;2023-12-29T07:08:09;1.58;;;1.02;;
64873;SDS011;51367;45.204;38.576;2023-12-29T07:10:39;1.23;;;0.60;;
64873;SDS011;51367;45.204;38.576;2023-12-29T07:13:05;3.38;;;0.95;;
64873;SDS011;51367;45.204;38.576;2023-12-29T07:15:31;0.80;;;0.70;;
64873;SDS011;51367;45.204;38.576;2023-12-29T07:17:56;0.60;;;0.60;;
64873;SDS011;51367;45.204;38.576;2023-12-29T07:20:22;0.73;;;0.73;;
64873;SDS011;51367;45.204;38.576;2023-12-29T07:22:48;0.85;;;0.60;;
64873;SDS011;51367;45.204;38.576;2023-12-29T07:25:14;1.48;;;0.60;;
64873;SDS011;51367;45.204;38.576;2023-12-29T07:27:40;1.38;;;0.60;;
64873;SDS011;51367;45.204;38.576;2023-12-29T07:30:07;3.05;;;1.95;;
64873;SDS011;51367;45.204;38.576;2023-12-29T07:32:34;0.50;;;0.50;;
64873;SDS011;51367;45.204;38.576;2023-12-29T07:34:59;1.35;;;1.02;;
64873;SDS011;51367;45.204;38.576;2023-12-29T07:37:25;0.80;;;0.80;;
64873;SDS011;51367;45.204;38.576;2023-12-29T07:39:51;0.82;;;0.70;;
64873;SDS011;51367;45.204;38.576;2023-12-29T07:42:17;1.42;;;1.30;;
64873;SDS011;51367;45.204;38.576;2023-12-29T07:44:43;1.40;;;1.10;;
64873;SDS011;51367;45.204;38.576;2023-12-29T07:47:09;0.88;;;0.77;;
64873;SDS011;51367;45.204;38.576;2023-12-29T07:49:37;1.00;;;0.90;;
64873;SDS011;51367;45.204;38.576;2023-12-29T07:52:03;2.83;;;0.90;;
64873;SDS011;51367;45.204;38.576;2023-12-29T07:54:29;2.13;;;0.68;;
64873;SDS011;51367;45.204;38.576;2023-12-29T07:56:55;1.75;;;1.13;;
64873;SDS011;51367;45.204;38.576;2023-12-29T07:59:21;2.13;;;1.33;;
64873;SDS011;51367;45.204;38.576;2023-12-29T08:01:47;1.27;;;0.93;;
64873;SDS011;51367;45.204;38.576;2023-12-29T08:04:13;1.40;;;1.30;;
64873;SDS011;51367;45.204;38.576;2023-12-29T08:06:39;2.58;;;1.38;;
64873;SDS011;51367;45.204;38.576;2023-12-29T08:09:05;1.23;;;1.13;;
64873;SDS011;51367;45.204;38.576;2023-12-29T08:11:33;0.93;;;0.82;;
64873;SDS011;51367;45.204;38.576;2023-12-29T08:13:59;1.38;;;1.25;;
64873;SDS011;51367;45.204;38.576;2023-12-29T08:16:24;1.02;;;0.93;;
64873;SDS011;51367;45.204;38.576;2023-12-29T08:18:51;1.92;;;1.02;;
64873;SDS011;51367;45.204;38.576;2023-12-29T08:21:20;7.88;;;1.17;;
64873;SDS011;51367;45.204;38.576;2023-12-29T08:23:46;1.65;;;0.73;;
64873;SDS011;51367;45.204;38.576;2023-12-29T08:26:13;0.98;;;0.55;;
64873;SDS011;51367;45.204;38.576;2023-12-29T08:28:39;0.75;;;0.60;;
64873;SDS011;51367;45.204;38.576;2023-12-29T08:31:06;1.50;;;0.90;;
64873;SDS011;51367;45.204;38.576;2023-12-29T08:33:33;1.10;;;1.05;;
64873;SDS011;51367;45.204;38.576;2023-12-29T08:36:01;2.90;;;0.90;;
64873;SDS011;51367;45.204;38.576;2023-12-29T08:38:29;3.58;;;1.08;;
64873;SDS011;51367;45.204;38.576;2023-12-29T08:40:56;2.75;;;0.90;;
64873;SDS011;51367;45.204;38.576;2023-12-29T08:43:22;3.17;;;1.30;;
64873;SDS011;51367;45.204;38.576;2023-12-29T08:45:48;1.77;;;1.27;;
64873;SDS011;51367;45.204;38.576;2023-12-29T08:48:14;2.70;;;1.42;;
64873;SDS011;51367;45.204;38.576;2023-12-29T08:50:41;4.60;;;1.35;;
64873;SDS011;51367;45.204;38.576;2023-12-29T08:53:08;2.55;;;1.38;;
64873;SDS011;51367;45.204;38.576;2023-12-29T08:55:35;0.98;;;0.90;;
64873;SDS011;51367;45.204;38.576;2023-12-29T08:58:01;2.13;;;1.02;;
64873;SDS011;51367;45.204;38.576;2023-12-29T09:00:27;0.70;;;0.70;;
64873;SDS011;51367;45.204;38.576;2023-12-29T09:02:56;2.20;;;1.27;;
64873;SDS011;51367;45.204;38.576;2023-12-29T09:05:22;1.27;;;1.17;;
64873;SDS011;51367;45.204;38.576;2023-12-29T09:07:48;1.17;;;1.10;;
64873;SDS011;51367;45.204;38.576;2023-12-29T09:10:14;1.77;;;1.30;;
64873;SDS011;51367;45.204;38.576;2023-12-29T09:12:40;0.73;;;0.73;;
64873;SDS011;51367;45.204;38.576;2023-12-29T09:15:07;5.15;;;1.30;;
64873;SDS011;51367;45.204;38.576;2023-12-29T09:17:33;0.80;;;0.80;;
64873;SDS011;51367;45.204;38.576;2023-12-29T09:20:00;1.08;;;0.50;;
64873;SDS011;51367;45.204;38.576;2023-12-29T09:22:26;1.05;;;1.00;;
64873;SDS011;51367;45.204;38.576;2023-12-29T09:24:53;1.40;;;0.77;;
64873;SDS011;51367;45.204;38.576;2023-12-29T09:27:20;3.13;;;0.90;;
64873;SDS011;51367;45.204;38.576;2023-12-29T09:29:46;1.63;;;1.10;;
64873;SDS011;51367;45.204;38.576;2023-12-29T09:32:12;2.58;;;1.30;;
64873;SDS011;51367;45.204;38.576;2023-12-29T09:34:38;4.65;;;1.25;;
64873;SDS011;51367;45.204;38.576;2023-12-29T09:37:04;3.78;;;0.98;;
64873;SDS011;51367;45.204;38.576;2023-12-29T09:39:30;0.60;;;0.60;;
64873;SDS011;51367;45.204;38.576;2023-12-29T09:41:58;5.03;;;1.05;;
64873;SDS011;51367;45.204;38.576;2023-12-29T09:44:27;1.45;;;1.35;;
64873;SDS011;51367;45.204;38.576;2023-12-29T09:46:54;3.50;;;0.95;;
64873;SDS011;51367;45.204;38.576;2023-12-29T09:49:20;4.10;;;1.48;;
64873;SDS011;51367;45.204;38.576;2023-12-29T09:51:46;2.10;;;1.20;;
64873;SDS011;51367;45.204;38.576;2023-12-29T09:54:13;1.73;;;1.10;;
64873;SDS011;51367;45.204;38.576;2023-12-29T09:56:40;1.00;;;1.00;;
64873;SDS011;51367;45.204;38.576;2023-12-29T09:59:10;3.25;;;1.10;;
64873;SDS011;51367;45.204;38.576;2023-12-29T10:01:38;2.35;;;1.23;;
64873;SDS011;51367;45.204;38.576;2023-12-29T10:04:06;12.18;;;2.15;;
64873;SDS011;51367;45.204;38.576;2023-12-29T10:06:34;1.40;;;1.05;;
64873;SDS011;51367;45.204;38.576;2023-12-29T10:09:04;2.30;;;1.13;;
64873;SDS011;51367;45.204;38.576;2023-12-29T10:11:34;0.70;;;0.70;;
64873;SDS011;51367;45.204;38.576;2023-12-29T10:14:03;0.80;;;0.80;;
64873;SDS011;51367;45.204;38.576;2023-12-29T10:16:42;1.10;;;1.08;;
64873;SDS011;51367;45.204;38.576;2023-12-29T10:19:20;1.75;;;1.27;;
64873;SDS011;51367;45.204;38.576;2023-12-29T10:22:02;0.90;;;0.88;;
64873;SDS011;51367;45.204;38.576;2023-12-29T10:24:51;2.05;;;0.90;;
64873;SDS011;51367;45.204;38.576;2023-12-29T10:27:18;1.20;;;1.10;;
64873;SDS011;51367;45.204;38.576;2023-12-29T10:29:44;2.20;;;1.08;;
64873;SDS011;51367;45.204;38.576;2023-12-29T10:32:10;3.60;;;1.30;;
64873;SDS011;51367;45.204;38.576;2023-12-29T10:34:36;4.85;;;1.45;;
64873;SDS011;51367;45.204;38.576;2023-12-29T10:37:02;1.02;;;0.95;;
64873;SDS011;51367;45.204;38.576;2023-12-29T10:39:28;1.63;;;1.52;;
64873;SDS011;51367;45.204;38.576;2023-12-29T10:42:04;1.20;;;1.10;;
64873;SDS011;51367;45.204;38.576;2023-12-29T10:44:35;0.80;;;0.80;;
64873;SDS011;51367;45.204;38.576;2023-12-29T10:47:12;5.22;;;1.73;;
64873;SDS011;51367;45.204;38.576;2023-12-29T10:49:41;1.45;;;1.02;;
64873;SDS011;51367;45.204;38.576;2023-12-29T10:52:11;3.10;;;0.88;;
64873;SDS011;51367;45.204;38.576;2023-12-29T10:54:44;1.38;;;1.00;;
64873;SDS011;51367;45.204;38.576;2023-12-29T10:57:11;12.88;;;1.45;;
64873;SDS011;51367;45.204;38.576;2023-12-29T10:59:41;1.30;;;0.90;;
64873;SDS011;51367;45.204;38.576;2023-12-29T11:02:07;2.88;;;1.00;;
64873;SDS011;51367;45.204;38.576;2023-12-29T11:04:39;10.68;;;1.25;;
64873;SDS011;51367;45.204;38.576;2023-12-29T11:07:06;2.00;;;1.23;;
64873;SDS011;51367;45.204;38.576;2023-12-29T11:09:33;1.98;;;1.40;;
64873;SDS011;51367;45.204;38.576;2023-12-29T11:12:00;1.95;;;0.90;;
64873;SDS011;51367;45.204;38.576;2023-12-29T11:14:27;1.00;;;1.00;;
64873;SDS011;51367;45.204;38.576;2023-12-29T11:16:56;4.53;;;1.67;;
64873;SDS011;51367;45.204;38.576;2023-12-29T11:19:29;1.10;;;1.00;;
64873;SDS011;51367;45.204;38.576;2023-12-29T11:21:55;1.48;;;1.38;;
64873;SDS011;51367;45.204;38.576;2023-12-29T11:24:22;6.05;;;1.67;;
64873;SDS011;51367;45.204;38.576;2023-12-29T11:26:49;4.90;;;0.90;;
64873;SDS011;51367;45.204;38.576;2023-12-29T11:29:18;1.60;;;0.88;;
64873;SDS011;51367;45.204;38.576;2023-12-29T11:31:44;1.20;;;1.10;;
64873;SDS011;51367;45.204;38.576;2023-12-29T11:34:16;1.10;;;1.00;;
64873;SDS011;51367;45.204;38.576;2023-12-29T11:37:04;1.77;;;1.35;;
64873;SDS011;51367;45.204;38.576;2023-12-29T11:39:56;4.82;;;1.48;;
64873;SDS011;51367;45.204;38.576;2023-12-29T11:42:28;1.55;;;1.23;;
64873;SDS011;51367;45.204;38.576;2023-12-29T11:44:59;1.25;;;1.20;;
64873;SDS011;51367;45.204;38.576;2023-12-29T11:47:49;1.15;;;1.08;;
64873;SDS011;51367;45.204;38.576;2023-12-29T11:50:37;1.50;;;0.70;;
64873;SDS011;51367;45.204;38.576;2023-12-29T11:53:08;4.60;;;1.50;;
64873;SDS011;51367;45.204;38.576;2023-12-29T11:55:35;1.65;;;1.55;;
64873;SDS011;51367;45.204;38.576;2023-12-29T12:00:52;2.30;;;1.30;;
64873;SDS011;51367;45.204;38.576;2023-12-29T12:05:49;2.60;;;1.23;;
64873;SDS011;51367;45.204;38.576;2023-12-29T12:08:34;0.88;;;0.88;;
64873;SDS011;51367;45.204;38.576;2023-12-29T12:13:57;2.17;;;1.58;;
64873;SDS011;51367;45.204;38.576;2023-12-29T12:19:10;2.08;;;1.85;;
64873;SDS011;51367;45.204;38.576;2023-12-29T12:21:42;2.42;;;1.25;;
64873;SDS011;51367;45.204;38.576;2023-12-29T12:24:13;1.15;;;1.13;;
64873;SDS011;51367;45.204;38.576;2023-12-29T12:26:39;5.60;;;2.83;;
64873;SDS011;51367;45.204;38.576;2023-12-29T12:29:06;1.48;;;1.38;;
64873;SDS011;51367;45.204;38.576;2023-12-29T12:31:32;3.75;;;2.40;;
64873;SDS011;51367;45.204;38.576;2023-12-29T12:33:58;3.28;;;2.97;;
64873;SDS011;51367;45.204;38.576;2023-12-29T12:36:28;5.40;;;4.25;;
64873;SDS011;51367;45.204;38.576;2023-12-29T12:38:54;3.85;;;3.50;;
64873;SDS011;51367;45.204;38.576;2023-12-29T12:41:21;4.32;;;3.20;;
64873;SDS011;51367;45.204;38.576;2023-12-29T12:46:35;3.15;;;2.60;;
64873;SDS011;51367;45.204;38.576;2023-12-29T12:49:17;4.40;;;2.63;;
64873;SDS011;51367;45.204;38.576;2023-12-29T12:51:43;3.67;;;3.38;;
64873;SDS011;51367;45.204;38.576;2023-12-29T12:54:10;1.85;;;1.73;;
64873;SDS011;51367;45.204;38.576;2023-12-29T12:56:37;4.40;;;1.45;;
64873;SDS011;51367;45.204;38.576;2023-12-29T12:59:03;2.97;;;1.40;;
64873;SDS011;51367;45.204;38.576;2023-12-29T13:01:30;2.17;;;1.48;;
64873;SDS011;51367;45.204;38.576;2023-12-29T13:04:01;1.27;;;1.17;;
64873;SDS011;51367;45.204;38.576;2023-12-29T13:06:29;4.43;;;1.88;;
64873;SDS011;51367;45.204;38.576;2023-12-29T13:08:55;2.50;;;2.22;;
64873;SDS011;51367;45.204;38.576;2023-12-29T13:11:21;1.63;;;1.40;;
64873;SDS011;51367;45.204;38.576;2023-12-29T13:13:50;6.60;;;1.98;;
64873;SDS011;51367;45.204;38.576;2023-12-29T13:16:28;8.23;;;2.20;;
64873;SDS011;51367;45.204;38.576;2023-12-29T13:21:48;4.15;;;2.05;;
64873;SDS011;51367;45.204;38.576;2023-12-29T13:24:19;4.43;;;1.08;;
64873;SDS011;51367;45.204;38.576;2023-12-29T13:26:46;1.83;;;1.15;;
64873;SDS011;51367;45.204;38.576;2023-12-29T13:29:21;3.47;;;1.48;;
64873;SDS011;51367;45.204;38.576;2023-12-29T13:31:52;4.90;;;1.40;;
64873;SDS011;51367;45.204;38.576;2023-12-29T13:34:27;17.33;;;2.50;;
64873;SDS011;51367;45.204;38.576;2023-12-29T13:39:51;37.45;;;3.78;;
64873;SDS011;51367;45.204;38.576;2023-12-29T13:42:20;38.95;;;6.07;;
64873;SDS011;51367;45.204;38.576;2023-12-29T13:44:50;25.48;;;9.15;;
64873;SDS011;51367;45.204;38.576;2023-12-29T13:47:17;44.47;;;6.10;;
64873;SDS011;51367;45.204;38.576;2023-12-29T13:49:45;30.65;;;4.20;;
64873;SDS011;51367;45.204;38.576;2023-12-29T13:52:13;5.78;;;2.15;;
64873;SDS011;51367;45.204;38.576;2023-12-29T13:54:41;11.50;;;2.03;;
64873;SDS011;51367;45.204;38.576;2023-12-29T13:57:10;47.78;;;7.35;;
64873;SDS011;51367;45.204;38.576;2023-12-29T13:59:36;3.50;;;2.58;;
64873;SDS011;51367;45.204;38.576;2023-12-29T14:02:26;10.48;;;5.43;;
64873;SDS011;51367;45.204;38.576;2023-12-29T14:05:11;20.50;;;10.55;;
64873;SDS011;51367;45.204;38.576;2023-12-29T14:07:44;13.65;;;5.50;;
64873;SDS011;51367;45.204;38.576;2023-12-29T14:10:32;43.15;;;6.65;;
64873;SDS011;51367;45.204;38.576;2023-12-29T14:13:09;76.88;;;8.20;;
64873;SDS011;51367;45.204;38.576;2023-12-29T14:15:40;41.92;;;4.22;;
64873;SDS011;51367;45.204;38.576;2023-12-29T14:21:26;11.75;;;3.83;;
64873;SDS011;51367;45.204;38.576;2023-12-29T14:23:59;10.82;;;2.13;;
64873;SDS011;51367;45.204;38.576;2023-12-29T14:26:26;21.52;;;4.03;;
64873;SDS011;51367;45.204;38.576;2023-12-29T14:29:02;1.80;;;1.65;;
64873;SDS011;51367;45.204;38.576;2023-12-29T14:34:04;98.80;;;9.15;;
64873;SDS011;51367;45.204;38.576;2023-12-29T14:36:31;5.28;;;2.28;;
64873;SDS011;51367;45.204;38.576;2023-12-29T14:38:58;24.23;;;4.57;;
64873;SDS011;51367;45.204;38.576;2023-12-29T14:41:24;0.75;;;0.75;;
64873;SDS011;51367;45.204;38.576;2023-12-29T14:43:50;0.82;;;0.73;;
64873;SDS011;51367;45.204;38.576;2023-12-29T14:46:16;1.98;;;1.13;;
64873;SDS011;51367;45.204;38.576;2023-12-29T14:48:42;1.05;;;1.05;;
64873;SDS011;51367;45.204;38.576;2023-12-29T14:51:09;1.50;;;1.35;;
64873;SDS011;51367;45.204;38.576;2023-12-29T14:53:36;5.65;;;1.75;;
64873;SDS011;51367;45.204;38.576;2023-12-29T14:56:03;0.93;;;0.82;;
64873;SDS011;51367;45.204;38.576;2023-12-29T14:58:31;2.60;;;1.60;;
64873;SDS011;51367;45.204;38.576;2023-12-29T15:00:57;1.17;;;1.05;;
64873;SDS011;51367;45.204;38.576;2023-12-29T15:03:24;1.45;;;1.30;;
64873;SDS011;51367;45.204;38.576;2023-12-29T15:05:51;1.77;;;1.67;;
64873;SDS011;51367;45.204;38.576;2023-12-29T15:08:17;3.35;;;1.10;;
64873;SDS011;51367;45.204;38.576;2023-12-29T15:10:43;3.60;;;1.27;;